createdAt,value
2022-10-19T00:00:55.350Z,7.02
2022-10-19T00:04:06.296Z,7.23
2022-10-19T00:07:11.034Z,7.24
2022-10-19T00:10:16.344Z,7.29
2022-10-19T00:13:24.636Z,7.16
2022-10-19T00:16:32.017Z,7.17
2022-10-19T00:19:40.634Z,6.99
2022-10-19T00:22:46.260Z,6.62
2022-10-19T00:25:51.866Z,6.69
2022-10-19T00:28:59.449Z,6.65
2022-10-19T00:32:05.676Z,6.83
2022-10-19T00:35:13.204Z,7.12
2022-10-19T00:38:19.830Z,7.01
2022-10-19T00:41:26.288Z,7.01
2022-10-19T00:44:36.511Z,7.02
2022-10-19T00:47:43.180Z,6.94
2022-10-19T00:50:49.111Z,6.63
2022-10-19T00:53:54.845Z,6.81
2022-10-19T00:57:01.619Z,6.80
2022-10-19T01:00:07.941Z,6.77
2022-10-19T01:03:13.599Z,6.70
2022-10-19T01:06:19.535Z,6.74
2022-10-19T01:09:25.375Z,6.73
2022-10-19T01:12:41.845Z,6.54
2022-10-19T01:16:08.305Z,6.56
2022-10-19T01:19:17.946Z,6.51
2022-10-19T01:22:41.967Z,6.46
2022-10-19T01:26:05.518Z,6.75
2022-10-19T01:29:44.804Z,6.52
2022-10-19T01:33:10.705Z,6.56
2022-10-19T01:36:40.003Z,6.54
2022-10-19T01:40:11.199Z,6.62
2022-10-19T01:43:51.524Z,6.76
2022-10-19T01:47:05.454Z,6.57
2022-10-19T01:50:30.548Z,6.61
2022-10-19T01:53:37.033Z,6.53
2022-10-19T01:56:42.403Z,6.46
2022-10-19T01:59:47.753Z,6.82
2022-10-19T02:02:58.010Z,6.45
2022-10-19T02:06:03.342Z,6.77
2022-10-19T02:09:09.844Z,6.61
2022-10-19T02:12:18.676Z,6.58
2022-10-19T02:15:27.617Z,6.60
2022-10-19T02:18:36.176Z,6.58
2022-10-19T02:21:42.671Z,6.57
2022-10-19T02:24:48.519Z,6.55
2022-10-19T02:27:54.347Z,6.27
2022-10-19T02:31:00.146Z,6.10
2022-10-19T02:34:05.924Z,6.07
2022-10-19T02:37:13.031Z,6.03
2022-10-19T02:40:19.955Z,6.12
2022-10-19T02:43:29.759Z,6.21
2022-10-19T02:46:57.209Z,6.12
2022-10-19T02:50:02.687Z,6.24
2022-10-19T02:53:08.450Z,6.28
2022-10-19T02:56:14.498Z,6.29
2022-10-19T02:59:20.300Z,6.43
2022-10-19T03:02:25.641Z,6.62
2022-10-19T03:05:31.437Z,6.50
2022-10-19T03:08:37.314Z,6.25
2022-10-19T03:11:43.739Z,6.44
2022-10-19T03:14:50.299Z,6.44
2022-10-19T03:17:56.494Z,6.46
2022-10-19T03:21:01.995Z,6.39
2022-10-19T03:24:07.401Z,6.30
2022-10-19T03:27:13.441Z,6.36
2022-10-19T03:30:21.134Z,6.37
2022-10-19T03:33:26.542Z,6.37
2022-10-19T03:36:43.067Z,6.48
2022-10-19T03:39:47.915Z,6.30
2022-10-19T03:42:54.319Z,6.32
2022-10-19T03:46:01.301Z,6.34
2022-10-19T03:49:06.974Z,6.02
2022-10-19T03:52:13.228Z,5.94
2022-10-19T03:55:19.127Z,5.98
2022-10-19T03:58:24.542Z,5.89
2022-10-19T04:01:39.799Z,5.84
2022-10-19T04:04:44.984Z,6.02
2022-10-19T04:07:50.979Z,6.17
2022-10-19T04:10:56.734Z,6.21
2022-10-19T04:14:05.189Z,6.39
2022-10-19T04:17:11.327Z,6.26
2022-10-19T04:20:17.811Z,6.00
2022-10-19T04:23:24.074Z,6.00
2022-10-19T04:26:29.815Z,5.91
2022-10-19T04:29:30.849Z,5.95
2022-10-19T04:32:35.967Z,6.28
2022-10-19T04:35:42.450Z,6.29
2022-10-19T04:38:48.822Z,6.13
2022-10-19T04:41:47.722Z,6.18
2022-10-19T04:44:54.353Z,6.34
2022-10-19T04:48:01.459Z,6.34
2022-10-19T04:51:10.101Z,6.77
2022-10-19T04:54:17.013Z,6.80
2022-10-19T04:57:22.545Z,6.88
2022-10-19T05:00:29.630Z,7.00
2022-10-19T05:03:35.571Z,6.93
2022-10-19T05:06:35.461Z,7.02
2022-10-19T05:09:42.720Z,7.21
2022-10-19T05:12:49.959Z,7.18
2022-10-19T05:15:55.586Z,7.25
2022-10-19T05:19:08.388Z,7.18
2022-10-19T05:22:13.777Z,7.24
2022-10-19T05:25:21.457Z,7.18
2022-10-19T05:28:28.276Z,7.63
2022-10-19T05:31:27.735Z,7.73
2022-10-19T05:34:20.989Z,7.98
2022-10-19T05:37:26.120Z,8.09
2022-10-19T05:40:31.711Z,7.91
2022-10-19T05:43:29.405Z,7.98
2022-10-19T05:46:27.172Z,8.23
2022-10-19T05:49:34.837Z,8.38
2022-10-19T05:52:40.268Z,8.49
2022-10-19T05:55:42.403Z,8.96
2022-10-19T05:58:48.112Z,8.94
2022-10-19T06:01:53.927Z,9.11
2022-10-19T06:04:59.343Z,9.27
2022-10-19T06:07:59.799Z,9.15
2022-10-19T06:11:07.642Z,9.18
2022-10-19T06:14:14.412Z,9.20
2022-10-19T06:17:20.352Z,9.40
2022-10-19T06:20:26.850Z,9.52
2022-10-19T06:23:34.428Z,9.61
2022-10-19T06:26:40.201Z,9.70
2022-10-19T06:29:45.253Z,9.80
2022-10-19T06:32:50.465Z,9.97
2022-10-19T06:35:55.920Z,10.16
2022-10-19T06:39:09.972Z,10.41
2022-10-19T06:42:16.563Z,10.48
2022-10-19T06:45:30.206Z,10.63
2022-10-19T06:48:34.926Z,10.91
2022-10-19T06:51:41.877Z,11.20
2022-10-19T06:54:48.622Z,11.44
2022-10-19T06:57:54.373Z,11.58
2022-10-19T07:00:59.784Z,11.79
2022-10-19T07:04:06.826Z,11.97
2022-10-19T07:07:12.792Z,12.23
2022-10-19T07:10:18.621Z,12.45
2022-10-19T07:13:24.532Z,12.61
2022-10-19T07:16:31.311Z,12.74
2022-10-19T07:19:42.254Z,13.00
2022-10-19T07:22:48.020Z,13.01
2022-10-19T07:25:54.263Z,13.09
2022-10-19T07:29:00.895Z,13.11
2022-10-19T07:32:07.473Z,13.26
2022-10-19T07:35:13.349Z,13.40
2022-10-19T07:38:19.978Z,13.53
2022-10-19T07:41:29.814Z,13.57
2022-10-19T07:44:36.932Z,13.71
2022-10-19T07:47:43.396Z,13.82
2022-10-19T07:50:51.235Z,14.26
2022-10-19T07:53:57.312Z,14.36
2022-10-19T07:57:02.395Z,14.44
2022-10-19T08:00:08.420Z,14.61
2022-10-19T08:06:26.302Z,14.86
2022-10-19T08:09:52.166Z,15.01
2022-10-19T08:12:39.536Z,15.15
2022-10-19T08:15:47.285Z,15.29
2022-10-19T08:18:55.691Z,15.19
2022-10-19T08:22:02.165Z,15.41
2022-10-19T08:25:08.506Z,15.57
2022-10-19T08:28:17.121Z,15.72
2022-10-19T08:31:35.396Z,15.75
2022-10-19T08:34:41.910Z,15.88
2022-10-19T08:37:47.229Z,15.95
2022-10-19T08:40:53.298Z,15.94
2022-10-19T08:44:13.523Z,16.10
2022-10-19T08:48:00.996Z,16.06
2022-10-19T08:50:59.151Z,16.46
2022-10-19T08:54:12.306Z,16.47
2022-10-19T08:57:27.420Z,16.68
2022-10-19T09:03:57.848Z,16.49
2022-10-19T09:07:19.733Z,16.70
2022-10-19T09:10:49.586Z,16.64
2022-10-19T09:14:05.225Z,16.77
2022-10-19T09:17:07.323Z,16.80
2022-10-19T09:20:15.789Z,16.92
2022-10-19T09:23:46.289Z,16.96
2022-10-19T09:26:58.372Z,16.95
2022-10-19T09:30:12.816Z,16.91
2022-10-19T09:33:18.496Z,16.87
2022-10-19T09:36:39.218Z,16.91
2022-10-19T09:39:33.692Z,17.02
2022-10-19T09:42:46.650Z,17.02
2022-10-19T09:46:13.860Z,16.95
2022-10-19T09:49:15.922Z,16.94
2022-10-19T09:52:44.369Z,16.90
2022-10-19T09:55:57.714Z,17.05
2022-10-19T09:59:07.288Z,17.03
2022-10-19T10:02:31.733Z,16.94
2022-10-19T10:05:55.422Z,17.16
2022-10-19T10:09:08.113Z,17.21
2022-10-19T10:12:15.770Z,17.38
2022-10-19T10:15:22.615Z,17.34
2022-10-19T10:18:31.108Z,17.27
2022-10-19T10:21:42.930Z,17.44
2022-10-19T10:24:50.236Z,17.67
2022-10-19T10:27:55.991Z,17.59
2022-10-19T10:31:02.357Z,17.73
2022-10-19T10:34:28.402Z,17.76
2022-10-19T10:37:31.106Z,17.75
2022-10-19T10:40:43.157Z,17.62
2022-10-19T10:47:16.343Z,17.74
2022-10-19T10:50:24.155Z,17.79
2022-10-19T10:53:54.838Z,17.73
2022-10-19T10:56:48.447Z,17.86
2022-10-19T11:00:10.273Z,17.82
2022-10-19T11:03:23.158Z,17.76
2022-10-19T11:06:29.582Z,18.02
2022-10-19T11:09:54.934Z,18.15
2022-10-19T11:13:08.185Z,18.11
2022-10-19T11:16:33.483Z,17.98
2022-10-19T11:19:53.281Z,18.10
2022-10-19T11:23:19.024Z,18.11
2022-10-19T11:26:44.087Z,17.96
2022-10-19T11:30:20.867Z,18.01
2022-10-19T11:33:58.859Z,18.03
2022-10-19T11:37:12.415Z,18.14
2022-10-19T11:41:06.080Z,18.42
2022-10-19T11:43:58.973Z,18.47
2022-10-19T11:47:36.933Z,18.04
2022-10-19T11:51:20.881Z,18.04
2022-10-19T11:54:44.104Z,18.16
2022-10-19T11:57:57.021Z,18.17
2022-10-19T12:01:13.768Z,18.35
2022-10-19T12:04:50.813Z,18.90
2022-10-19T12:08:11.021Z,19.31
2022-10-19T12:11:24.578Z,18.12
2022-10-19T12:14:38.368Z,18.18
2022-10-19T12:17:47.326Z,18.03
2022-10-19T12:21:03.775Z,18.03
2022-10-19T12:24:09.603Z,18.12
2022-10-19T12:27:14.795Z,18.20
2022-10-19T12:30:29.507Z,18.50
2022-10-19T12:33:36.562Z,18.43
2022-10-19T12:37:19.341Z,18.53
2022-10-19T12:40:43.958Z,18.40
2022-10-19T12:44:12.710Z,18.48
2022-10-19T12:47:28.435Z,18.42
2022-10-19T12:50:38.470Z,18.64
2022-10-19T12:53:51.434Z,18.56
2022-10-19T12:57:05.253Z,18.56
2022-10-19T13:00:12.126Z,18.69
2022-10-19T13:03:26.237Z,18.69
2022-10-19T13:06:41.791Z,18.74
2022-10-19T13:09:52.799Z,18.60
2022-10-19T13:13:00.603Z,18.82
2022-10-19T13:16:07.252Z,18.61
2022-10-19T13:19:32.476Z,18.54
2022-10-19T13:22:43.114Z,18.60
2022-10-19T13:25:53.121Z,18.62
2022-10-19T13:29:08.042Z,18.55
2022-10-19T13:32:34.964Z,18.37
2022-10-19T13:35:49.487Z,18.39
2022-10-19T13:39:17.255Z,18.35
2022-10-19T13:42:40.994Z,18.66
2022-10-19T13:45:47.772Z,15.87
2022-10-19T13:49:32.887Z,16.22
2022-10-19T13:52:45.877Z,16.60
2022-10-19T13:56:15.087Z,16.73
2022-10-19T14:00:02.098Z,16.74
2022-10-19T14:03:40.650Z,16.77
2022-10-19T14:06:58.885Z,16.56
2022-10-19T14:10:33.061Z,16.54
2022-10-19T14:13:36.421Z,16.53
2022-10-19T14:16:42.612Z,16.84
2022-10-19T14:19:59.040Z,16.51
2022-10-19T14:23:05.029Z,16.36
2022-10-19T14:26:12.993Z,16.27
2022-10-19T14:29:17.919Z,16.58
2022-10-19T14:32:25.459Z,16.40
2022-10-19T14:35:47.813Z,16.32
2022-10-19T14:38:55.326Z,16.48
2022-10-19T14:42:03.028Z,16.09
2022-10-19T14:45:08.896Z,16.12
2022-10-19T14:48:23.916Z,15.85
2022-10-19T14:52:05.662Z,15.45
2022-10-19T14:55:12.776Z,15.60
2022-10-19T14:58:18.910Z,15.83
2022-10-19T15:01:24.655Z,15.16
2022-10-19T15:04:36.199Z,15.11
2022-10-19T15:07:57.119Z,15.38
2022-10-19T15:11:02.885Z,15.20
2022-10-19T15:14:16.375Z,15.41
2022-10-19T15:17:31.884Z,15.45
2022-10-19T15:21:08.270Z,15.47
2022-10-19T15:24:06.128Z,15.10
2022-10-19T15:27:12.558Z,15.17
2022-10-19T15:30:35.062Z,15.26
2022-10-19T15:33:41.070Z,15.16
2022-10-19T15:36:47.721Z,15.06
2022-10-19T15:39:53.318Z,15.36
2022-10-19T15:42:59.315Z,14.97
2022-10-19T15:46:06.179Z,15.24
2022-10-19T15:49:18.344Z,15.41
2022-10-19T15:52:31.705Z,15.12
2022-10-19T15:55:36.962Z,14.95
2022-10-19T15:58:41.846Z,14.95
2022-10-19T16:01:51.115Z,15.58
2022-10-19T16:04:54.654Z,15.53
2022-10-19T16:07:59.564Z,15.55
2022-10-19T16:11:05.944Z,15.40
2022-10-19T16:14:12.205Z,15.39
2022-10-19T16:17:18.259Z,15.40
2022-10-19T16:20:26.760Z,15.25
2022-10-19T16:23:31.945Z,15.11
2022-10-19T16:26:39.611Z,14.98
2022-10-19T16:29:47.603Z,15.04
2022-10-19T16:32:54.506Z,14.57
2022-10-19T16:36:00.646Z,14.11
2022-10-19T16:39:05.958Z,14.60
2022-10-19T16:42:11.423Z,14.50
2022-10-19T16:45:11.029Z,14.05
2022-10-19T16:48:21.845Z,14.48
2022-10-19T16:51:40.992Z,14.42
2022-10-19T16:54:47.060Z,14.47
2022-10-19T16:57:53.676Z,14.21
2022-10-19T17:01:00.933Z,14.15
2022-10-19T17:04:07.307Z,14.03
2022-10-19T17:07:12.596Z,14.02
2022-10-19T17:10:19.452Z,13.96
2022-10-19T17:13:25.388Z,13.94
2022-10-19T17:16:30.974Z,13.79
2022-10-19T17:19:36.117Z,13.68
2022-10-19T17:22:43.146Z,13.58
2022-10-19T17:25:48.578Z,13.44
2022-10-19T17:28:56.394Z,13.30
2022-10-19T17:32:01.477Z,13.42
2022-10-19T17:35:09.915Z,13.39
2022-10-19T17:38:14.796Z,13.34
2022-10-19T17:41:30.152Z,13.44
2022-10-19T17:44:36.951Z,13.52
2022-10-19T17:47:43.188Z,13.34
2022-10-19T17:50:49.642Z,13.14
2022-10-19T17:53:54.677Z,13.10
2022-10-19T17:57:00.837Z,13.24
2022-10-19T18:00:09.562Z,13.10
2022-10-19T18:03:15.876Z,13.17
2022-10-19T18:06:26.917Z,13.13
2022-10-19T18:09:32.956Z,13.23
2022-10-19T18:12:39.331Z,13.19
2022-10-19T18:15:44.764Z,13.00
2022-10-19T18:18:52.671Z,12.99
2022-10-19T18:21:59.943Z,12.94
2022-10-19T18:25:06.061Z,12.79
2022-10-19T18:28:13.061Z,13.02
2022-10-19T18:31:37.597Z,12.72
2022-10-19T18:34:43.868Z,12.58
2022-10-19T18:37:43.091Z,12.56
2022-10-19T18:40:51.760Z,12.57
2022-10-19T18:43:57.310Z,12.76
2022-10-19T18:47:03.799Z,12.74
2022-10-19T18:50:09.749Z,12.83
2022-10-19T18:53:16.437Z,12.76
2022-10-19T18:56:24.383Z,12.68
2022-10-19T18:59:30.173Z,12.66
2022-10-19T19:02:46.332Z,12.73
2022-10-19T19:05:44.226Z,12.73
2022-10-19T19:08:51.483Z,12.73
2022-10-19T19:12:00.465Z,12.42
2022-10-19T19:15:00.462Z,12.31
2022-10-19T19:18:09.158Z,12.07
2022-10-19T19:21:16.957Z,12.30
2022-10-19T19:24:22.703Z,12.31
2022-10-19T19:27:32.110Z,12.25
2022-10-19T19:30:37.037Z,12.33
2022-10-19T19:33:42.877Z,12.37
2022-10-19T19:36:50.579Z,12.40
2022-10-19T19:39:57.380Z,12.34
2022-10-19T19:43:03.763Z,12.38
2022-10-19T19:46:18.905Z,12.33
2022-10-19T19:49:28.022Z,12.26
2022-10-19T19:52:40.134Z,12.36
2022-10-19T19:55:42.529Z,12.52
2022-10-19T19:58:49.083Z,12.62
2022-10-19T20:01:56.298Z,12.50
2022-10-19T20:05:01.246Z,12.54
2022-10-19T20:08:07.481Z,12.65
2022-10-19T20:11:23.349Z,12.59
2022-10-19T20:14:30.464Z,12.56
2022-10-19T20:17:36.853Z,12.62
2022-10-19T20:20:42.704Z,12.75
2022-10-19T20:23:47.530Z,12.86
2022-10-19T20:26:53.410Z,12.79
2022-10-19T20:30:02.536Z,12.57
2022-10-19T20:33:09.032Z,12.36
2022-10-19T20:36:23.803Z,12.38
2022-10-19T20:39:29.995Z,12.26
2022-10-19T20:42:35.237Z,12.34
2022-10-19T20:45:43.494Z,12.47
2022-10-19T20:48:50.850Z,12.36
2022-10-19T20:51:57.470Z,12.67
2022-10-19T20:55:04.264Z,12.41
2022-10-19T20:58:10.868Z,12.44
2022-10-19T21:01:28.737Z,12.68
2022-10-19T21:04:34.638Z,12.57
2022-10-19T21:07:41.239Z,12.51
2022-10-19T21:10:47.814Z,12.44
2022-10-19T21:13:53.784Z,12.40
2022-10-19T21:17:00.748Z,12.32
2022-10-19T21:20:06.908Z,12.26
2022-10-19T21:23:13.826Z,12.30
2022-10-19T21:26:19.280Z,12.36
2022-10-19T21:29:25.735Z,12.26
2022-10-19T21:32:32.755Z,12.33
2022-10-19T21:35:39.192Z,12.26
2022-10-19T21:38:45.867Z,12.14
2022-10-19T21:41:52.463Z,11.96
2022-10-19T21:45:01.455Z,11.95
2022-10-19T21:48:08.583Z,11.89
2022-10-19T21:51:13.524Z,11.87
2022-10-19T21:54:28.657Z,12.12
2022-10-19T21:57:34.722Z,12.00
2022-10-19T22:00:40.832Z,12.12
2022-10-19T22:03:46.786Z,12.04
2022-10-19T22:06:52.138Z,12.07
2022-10-19T22:09:58.201Z,11.97
2022-10-19T22:13:04.139Z,11.98
2022-10-19T22:16:02.769Z,11.94
2022-10-19T22:19:02.532Z,11.92
2022-10-19T22:22:08.966Z,12.38
2022-10-19T22:25:14.624Z,12.41
2022-10-19T22:28:19.475Z,12.34
2022-10-19T22:31:25.529Z,12.07
2022-10-19T22:34:32.681Z,12.11
2022-10-19T22:37:38.325Z,12.14
2022-10-19T22:40:44.369Z,12.04
2022-10-19T22:43:50.204Z,12.06
2022-10-19T22:46:56.552Z,11.97
2022-10-19T22:50:02.385Z,11.98
2022-10-19T22:53:02.358Z,12.03
2022-10-19T22:55:56.955Z,11.93
2022-10-19T22:59:02.706Z,11.95
2022-10-19T23:02:09.001Z,11.94
2022-10-19T23:05:14.072Z,11.86
2022-10-19T23:08:19.606Z,11.77
2022-10-19T23:11:25.575Z,11.92
2022-10-19T23:14:32.008Z,12.01
2022-10-19T23:17:38.730Z,12.21
2022-10-19T23:20:45.068Z,11.58
2022-10-19T23:23:50.979Z,11.59
2022-10-19T23:26:56.820Z,11.63
2022-10-19T23:30:03.479Z,11.55
2022-10-19T23:33:08.806Z,11.53
2022-10-19T23:36:29.249Z,11.56
2022-10-19T23:39:35.876Z,11.60
2022-10-19T23:42:41.373Z,11.69
2022-10-19T23:45:46.886Z,11.55
2022-10-19T23:48:53.798Z,11.42
2022-10-19T23:52:01.126Z,11.42
2022-10-19T23:55:07.891Z,11.54
2022-10-19T23:58:13.374Z,11.56
